Time;durP1;ratioP1;P1;durP2;ratioP2;P2;SDS_P1;SDS_P2;PMS_P1;PMS_P2;Temp;Humidity;BMP_temperature;BMP_pressure;BME280_temperature;BME280_humidity;BME280_pressure;Samples;Min_cycle;Max_cycle;Signal;HPM_P1;HPM_P2
2022/09/01 00:00:48;;;;;;;15.00;13.80;;;16.40;99.90;;;;;;6249307;23;20672;-45
2022/09/01 00:03:18;;;;;;;17.03;15.33;;;16.40;99.90;;;;;;6249039;22;20458;-45
2022/09/01 00:05:45;;;;;;;15.20;13.93;;;16.40;99.90;;;;;;6250457;23;20413;-43
2022/09/01 00:08:11;;;;;;;15.17;13.80;;;16.30;99.90;;;;;;6248989;23;20410;-45
2022/09/01 00:10:37;;;;;;;17.60;16.00;;;16.30;99.90;;;;;;6248512;23;20485;-44
2022/09/01 00:13:05;;;;;;;28.23;25.43;;;16.30;99.90;;;;;;6249571;23;20358;-46
2022/09/01 00:15:34;;;;;;;24.83;22.53;;;16.30;99.90;;;;;;6249705;23;20150;-45
2022/09/01 00:18:00;;;;;;;24.50;22.20;;;16.30;99.90;;;;;;6249725;23;20357;-44
2022/09/01 00:20:26;;;;;;;24.70;22.40;;;16.20;99.90;;;;;;6249600;23;20839;-43
2022/09/01 00:22:52;;;;;;;25.53;23.20;;;16.20;99.90;;;;;;6250059;23;20221;-45
2022/09/01 00:25:19;;;;;;;22.40;20.50;;;16.20;99.90;;;;;;6249420;23;20407;-45
2022/09/01 00:27:46;;;;;;;25.10;22.70;;;16.20;99.90;;;;;;6249204;23;20216;-44
2022/09/01 00:30:12;;;;;;;27.53;25.03;;;16.20;99.90;;;;;;6249819;23;20478;-43
2022/09/01 00:32:37;;;;;;;29.90;27.10;;;16.20;99.90;;;;;;6249685;23;20413;-46
2022/09/01 00:35:04;;;;;;;28.40;25.80;;;16.20;99.90;;;;;;6249008;23;20574;-46
2022/09/01 00:37:30;;;;;;;25.67;23.30;;;16.20;99.90;;;;;;6249923;23;20134;-44
2022/09/01 00:39:56;;;;;;;23.23;21.07;;;16.20;99.90;;;;;;6249752;23;20481;-45
2022/09/01 00:42:22;;;;;;;24.27;21.97;;;16.10;99.90;;;;;;6249717;23;20393;-48
2022/09/01 00:44:47;;;;;;;27.87;25.00;;;16.10;99.90;;;;;;6249341;23;20360;-45
2022/09/01 00:47:13;;;;;;;21.03;19.13;;;16.10;99.90;;;;;;6249540;23;20182;-44
2022/09/01 00:49:44;;;;;;;24.80;22.60;;;16.00;99.90;;;;;;6249603;23;20139;-47
2022/09/01 00:52:22;;;;;;;24.90;22.70;;;16.00;99.90;;;;;;6248487;23;20526;-46
2022/09/01 00:54:52;;;;;;;24.27;22.13;;;16.00;99.90;;;;;;6249569;23;20520;-45
2022/09/01 00:57:18;;;;;;;26.43;23.80;;;16.00;99.90;;;;;;6248250;23;20451;-48
2022/09/01 00:59:55;;;;;;;25.77;22.93;;;16.00;99.90;;;;;;6249241;23;20362;-44
2022/09/01 01:02:21;;;;;;;22.90;20.80;;;16.00;99.90;;;;;;6247142;23;20161;-48
2022/09/01 01:04:47;;;;;;;23.13;20.93;;;16.00;99.90;;;;;;6247860;23;20353;-44
2022/09/01 01:07:14;;;;;;;23.97;21.60;;;16.00;99.90;;;;;;6248770;23;20526;-45
2022/09/01 01:09:42;;;;;;;26.37;24.07;;;16.00;99.90;;;;;;6247420;23;20140;-48
2022/09/01 01:12:12;;;;;;;24.57;22.47;;;16.00;99.90;;;;;;6246529;23;20388;-47
2022/09/01 01:14:40;;;;;;;24.93;22.53;;;16.00;99.90;;;;;;6247183;23;20376;-45
2022/09/01 01:17:06;;;;;;;23.10;21.00;;;16.00;99.90;;;;;;6248902;23;20387;-45
2022/09/01 01:25:25;;;;;;;23.57;21.47;;;15.80;99.90;;;;;;6247865;23;20362;-44
2022/09/01 01:27:51;;;;;;;25.10;22.70;;;15.80;99.90;;;;;;6248270;23;20609;-43
2022/09/01 01:30:19;;;;;;;26.60;23.80;;;15.60;99.90;;;;;;6248398;23;20355;-45
2022/09/01 01:32:46;;;;;;;23.77;21.57;;;15.60;99.90;;;;;;6249728;23;20428;-45
2022/09/01 01:35:14;;;;;;;26.20;23.80;;;15.60;99.90;;;;;;6247378;23;20499;-47
2022/09/01 01:37:45;;;;;;;23.10;20.77;;;15.50;99.90;;;;;;6248057;23;20417;-48
2022/09/01 01:40:14;;;;;;;21.97;19.93;;;15.50;99.90;;;;;;6247432;22;20353;-43
2022/09/01 01:42:46;;;;;;;21.60;19.50;;;15.50;99.90;;;;;;6247930;23;20411;-43
2022/09/01 01:45:16;;;;;;;24.53;22.33;;;15.50;99.90;;;;;;6247218;23;20707;-43
2022/09/01 01:47:55;;;;;;;25.57;23.07;;;15.50;99.90;;;;;;6246830;23;20527;-44
2022/09/01 01:50:32;;;;;;;25.40;23.10;;;15.40;99.90;;;;;;6247351;23;20373;-42
2022/09/01 01:52:58;;;;;;;26.03;23.63;;;15.40;99.90;;;;;;6247227;23;20787;-43
2022/09/01 01:55:27;;;;;;;23.00;20.90;;;15.40;99.90;;;;;;6246518;23;20351;-46
2022/09/01 01:57:55;;;;;;;24.47;22.33;;;15.30;99.90;;;;;;6248631;23;20475;-45
2022/09/01 02:00:23;;;;;;;23.17;21.07;;;15.30;99.90;;;;;;6249064;23;20811;-43
2022/09/01 02:02:52;;;;;;;23.80;21.50;;;15.30;99.90;;;;;;6249121;23;20384;-44
2022/09/01 02:05:24;;;;;;;26.50;24.00;;;15.30;99.90;;;;;;6248749;23;20503;-44
2022/09/01 02:07:54;;;;;;;25.50;23.00;;;15.30;99.90;;;;;;6247637;23;20423;-43
2022/09/01 02:10:25;;;;;;;25.70;23.40;;;15.40;99.90;;;;;;6248190;23;20815;-48
2022/09/01 02:12:51;;;;;;;20.67;18.87;;;15.40;99.90;;;;;;6248961;23;20438;-44
2022/09/01 02:15:18;;;;;;;21.87;19.93;;;15.40;99.90;;;;;;6249029;23;20357;-44
2022/09/01 02:17:44;;;;;;;25.03;22.73;;;15.50;99.90;;;;;;6249071;23;20523;-48
2022/09/01 02:20:10;;;;;;;24.10;21.73;;;15.50;99.90;;;;;;6250326;23;20769;-45
2022/09/01 02:22:40;;;;;;;23.87;21.50;;;15.50;99.90;;;;;;6250726;23;20385;-46
2022/09/01 02:25:06;;;;;;;23.80;21.60;;;15.40;99.90;;;;;;6250485;23;20357;-48
2022/09/01 02:27:38;;;;;;;26.63;24.33;;;15.40;99.90;;;;;;6250908;23;20528;-46
2022/09/01 02:30:11;;;;;;;27.07;24.67;;;15.50;99.90;;;;;;6250755;23;20355;-46
2022/09/01 02:32:37;;;;;;;24.27;21.90;;;15.50;99.90;;;;;;6251350;22;20532;-45
2022/09/01 02:35:06;;;;;;;26.07;23.70;;;15.30;99.90;;;;;;6250201;23;20421;-44
2022/09/01 02:37:32;;;;;;;25.70;23.30;;;15.40;99.90;;;;;;6249758;23;20217;-46
2022/09/01 02:39:58;;;;;;;27.93;25.23;;;15.40;99.90;;;;;;6251068;23;20632;-43
2022/09/01 02:42:28;;;;;;;25.20;22.90;;;15.30;99.90;;;;;;6250786;23;20481;-44
2022/09/01 02:44:54;;;;;;;24.13;21.87;;;15.30;99.90;;;;;;6249379;23;20186;-45
2022/09/01 02:47:22;;;;;;;27.00;24.47;;;15.30;99.90;;;;;;6250722;23;20424;-44
2022/09/01 02:49:49;;;;;;;23.33;21.13;;;15.20;99.90;;;;;;6250468;23;20456;-50
2022/09/01 02:52:16;;;;;;;24.50;22.17;;;15.20;99.90;;;;;;6250187;23;20448;-43
2022/09/01 02:54:44;;;;;;;24.07;21.87;;;15.20;99.90;;;;;;6250546;23;20389;-44
2022/09/01 02:57:10;;;;;;;24.27;22.17;;;15.20;99.90;;;;;;6249636;23;20411;-47
2022/09/01 02:59:36;;;;;;;25.63;23.13;;;15.10;99.90;;;;;;6250443;23;20369;-45
2022/09/01 03:02:02;;;;;;;22.40;20.30;;;15.10;99.90;;;;;;6250026;23;20450;-47
2022/09/01 03:04:33;;;;;;;22.20;20.07;;;15.10;99.90;;;;;;6249833;23;20144;-45
2022/09/01 03:07:00;;;;;;;23.50;21.37;;;15.10;99.90;;;;;;6248045;23;20418;-47
2022/09/01 03:09:26;;;;;;;23.50;21.10;;;15.10;99.90;;;;;;6250339;23;20359;-43
2022/09/01 03:11:53;;;;;;;25.23;22.93;;;15.20;99.90;;;;;;6248099;23;20435;-45
2022/09/01 03:14:20;;;;;;;24.30;22.10;;;15.10;99.90;;;;;;6248327;23;20356;-44
2022/09/01 03:16:46;;;;;;;24.83;22.50;;;15.20;99.90;;;;;;6247066;23;20757;-45
2022/09/01 03:19:13;;;;;;;20.90;18.97;;;15.10;99.90;;;;;;6248079;23;20397;-45
2022/09/01 03:21:40;;;;;;;18.33;16.73;;;15.00;99.90;;;;;;6249031;22;20363;-46
2022/09/01 03:24:13;;;;;;;18.20;16.60;;;14.90;99.90;;;;;;6249553;23;20431;-45
2022/09/01 03:26:39;;;;;;;17.10;15.70;;;15.00;99.90;;;;;;6250020;23;20353;-43
2022/09/01 03:29:06;;;;;;;18.47;16.57;;;15.00;99.90;;;;;;6249483;23;20487;-45
2022/09/01 03:31:31;;;;;;;17.83;16.20;;;15.10;99.90;;;;;;6249694;22;20396;-46
2022/09/01 03:33:58;;;;;;;18.43;16.73;;;15.10;99.90;;;;;;6250389;23;20365;-46
2022/09/01 03:36:24;;;;;;;17.77;16.23;;;15.20;99.90;;;;;;6248975;23;20655;-44
2022/09/01 03:38:51;;;;;;;17.57;16.10;;;15.20;99.90;;;;;;6249361;23;20415;-50
2022/09/01 03:41:21;;;;;;;18.13;16.43;;;15.30;99.90;;;;;;6249838;23;20487;-47
2022/09/01 03:43:47;;;;;;;16.37;14.97;;;15.30;99.90;;;;;;6249291;23;20444;-47
2022/09/01 03:46:20;;;;;;;16.23;14.90;;;15.30;99.90;;;;;;6248988;23;20446;-46
2022/09/01 03:48:49;;;;;;;15.97;14.53;;;15.30;99.90;;;;;;6249731;23;20515;-44
2022/09/01 03:51:15;;;;;;;14.90;13.60;;;15.30;99.90;;;;;;6249961;23;20834;-46
2022/09/01 03:53:41;;;;;;;17.10;15.60;;;15.40;99.90;;;;;;6249721;23;20358;-47
2022/09/01 03:56:07;;;;;;;17.00;15.60;;;15.40;99.90;;;;;;6249199;23;20463;-45
2022/09/01 03:58:33;;;;;;;15.63;14.23;;;15.40;99.90;;;;;;6249453;23;20172;-47
2022/09/01 04:01:00;;;;;;;15.40;14.20;;;15.40;99.90;;;;;;6248378;23;20350;-47
2022/09/01 04:03:30;;;;;;;15.83;14.37;;;15.30;99.90;;;;;;6249156;23;20767;-43
2022/09/01 04:05:57;;;;;;;15.87;14.47;;;15.30;99.90;;;;;;6249101;23;20350;-44
2022/09/01 04:08:30;;;;;;;16.40;14.90;;;15.30;99.90;;;;;;6249502;22;20450;-46
2022/09/01 04:10:59;;;;;;;19.20;17.47;;;15.30;99.90;;;;;;6249356;23;20351;-45
2022/09/01 04:13:30;;;;;;;21.40;19.40;;;15.30;99.90;;;;;;6248198;23;20349;-46
2022/09/01 04:15:57;;;;;;;18.83;17.27;;;15.30;99.90;;;;;;6248031;22;20687;-44
2022/09/01 04:18:24;;;;;;;23.30;21.10;;;15.20;99.90;;;;;;6245220;23;20668;-44
2022/09/01 04:20:55;;;;;;;21.40;19.40;;;15.10;99.90;;;;;;6246457;23;20390;-44
2022/09/01 04:23:32;;;;;;;23.77;21.67;;;15.10;99.90;;;;;;6246376;23;20388;-46
2022/09/01 04:26:07;;;;;;;27.07;24.67;;;15.00;99.90;;;;;;6248050;23;20356;-45
2022/09/01 04:28:38;;;;;;;23.90;21.67;;;15.00;99.90;;;;;;6246317;23;20766;-45
2022/09/01 04:31:08;;;;;;;25.90;23.60;;;14.90;99.90;;;;;;6245749;23;20358;-44
2022/09/01 04:33:43;;;;;;;23.53;21.33;;;14.90;99.90;;;;;;6245567;23;20378;-45
2022/09/01 04:36:19;;;;;;;26.90;24.30;;;14.90;99.90;;;;;;6245749;23;20419;-44
2022/09/01 04:38:46;;;;;;;26.33;23.83;;;15.10;99.90;;;;;;6246393;23;20535;-44
2022/09/01 04:41:16;;;;;;;24.03;21.73;;;15.10;99.90;;;;;;6245863;23;20447;-43
2022/09/01 04:43:43;;;;;;;22.90;20.80;;;15.10;99.90;;;;;;6247305;23;20843;-45
2022/09/01 04:46:13;;;;;;;21.90;19.87;;;15.10;99.90;;;;;;6246855;23;20357;-46
2022/09/01 04:48:42;;;;;;;18.67;16.87;;;15.20;99.90;;;;;;6247431;23;20727;-44
2022/09/01 04:51:09;;;;;;;18.70;17.00;;;15.20;99.90;;;;;;6246881;23;20406;-45
2022/09/01 04:53:39;;;;;;;17.70;16.10;;;15.30;99.90;;;;;;6246471;23;20390;-44
2022/09/01 04:56:06;;;;;;;17.00;15.20;;;15.40;99.90;;;;;;6246559;23;20361;-44
2022/09/01 04:58:32;;;;;;;17.77;15.97;;;15.50;99.90;;;;;;6246626;23;20389;-46
2022/09/01 05:00:59;;;;;;;19.17;17.47;;;15.60;99.90;;;;;;6246080;23;20377;-45
2022/09/01 05:03:25;;;;;;;21.00;19.20;;;15.70;99.90;;;;;;6244774;23;20384;-45
2022/09/01 05:05:52;;;;;;;19.47;17.77;;;15.70;99.90;;;;;;6244203;23;20637;-45
2022/09/01 05:08:21;;;;;;;18.90;17.03;;;15.60;99.90;;;;;;6245725;23;20432;-44
2022/09/01 05:10:54;;;;;;;16.53;14.83;;;15.60;99.90;;;;;;6245495;23;20358;-45
2022/09/01 05:13:22;;;;;;;16.17;14.67;;;15.70;99.90;;;;;;6243443;23;20381;-46
2022/09/01 05:16:00;;;;;;;15.07;13.77;;;15.80;99.90;;;;;;6241961;23;20378;-46
2022/09/01 05:18:27;;;;;;;15.53;14.10;;;15.90;99.90;;;;;;6244611;23;20387;-44
2022/09/01 05:20:53;;;;;;;15.13;13.83;;;16.00;99.90;;;;;;6243858;23;20736;-44
2022/09/01 05:23:20;;;;;;;16.03;14.63;;;16.10;99.90;;;;;;6245244;23;20385;-45
2022/09/01 05:25:48;;;;;;;16.67;15.20;;;16.20;99.90;;;;;;6244525;23;20389;-45
2022/09/01 05:28:16;;;;;;;19.00;17.13;;;16.30;99.90;;;;;;6246839;23;20467;-44
2022/09/01 05:30:42;;;;;;;16.13;14.63;;;16.40;99.90;;;;;;6247149;23;20376;-44
2022/09/01 05:33:14;;;;;;;16.97;15.27;;;16.40;99.90;;;;;;6245956;23;20408;-44
2022/09/01 05:35:51;;;;;;;16.33;14.83;;;16.50;99.90;;;;;;6246224;23;20421;-45
2022/09/01 05:38:17;;;;;;;18.20;16.40;;;16.50;99.90;;;;;;6244444;23;20439;-44
2022/09/01 05:40:43;;;;;;;20.30;18.40;;;16.50;99.90;;;;;;6245625;23;20361;-49
2022/09/01 05:43:13;;;;;;;18.20;16.23;;;16.60;99.90;;;;;;6245410;23;20161;-46
2022/09/01 05:45:42;;;;;;;23.63;21.47;;;16.60;99.90;;;;;;6245268;23;20387;-46
2022/09/01 05:48:13;;;;;;;22.50;20.30;;;16.50;99.90;;;;;;6245042;22;20428;-44
2022/09/01 05:50:41;;;;;;;18.93;17.23;;;16.40;99.90;;;;;;6245194;23;20344;-44
2022/09/01 05:53:16;;;;;;;17.13;15.43;;;16.30;99.90;;;;;;6244739;23;20407;-44
2022/09/01 05:55:45;;;;;;;18.30;16.67;;;16.40;99.90;;;;;;6245876;23;20355;-45
2022/09/01 05:58:12;;;;;;;22.00;19.90;;;16.50;99.90;;;;;;6243624;23;20456;-45
2022/09/01 06:00:48;;;;;;;21.23;19.20;;;16.50;99.90;;;;;;6243602;23;20378;-45
2022/09/01 06:03:14;;;;;;;18.60;16.80;;;16.50;99.90;;;;;;6242712;23;20806;-45
2022/09/01 06:05:41;;;;;;;22.93;20.60;;;16.60;99.90;;;;;;6245728;23;20519;-45
2022/09/01 06:08:09;;;;;;;21.20;19.20;;;16.70;99.90;;;;;;6246656;23;20524;-45
2022/09/01 06:10:38;;;;;;;17.20;15.80;;;16.80;99.90;;;;;;6244425;23;20632;-44
2022/09/01 06:13:06;;;;;;;15.17;13.73;;;16.80;99.90;;;;;;6243256;23;20691;-46
2022/09/01 06:15:32;;;;;;;21.73;19.73;;;16.90;99.90;;;;;;6243733;23;20456;-46
2022/09/01 06:17:59;;;;;;;20.33;18.30;;;17.10;99.90;;;;;;6245441;23;20368;-44
2022/09/01 06:20:26;;;;;;;16.40;14.90;;;17.20;99.90;;;;;;6245632;23;20727;-45
2022/09/01 06:22:52;;;;;;;15.00;13.70;;;17.30;99.90;;;;;;6244086;23;20357;-45
2022/09/01 06:25:21;;;;;;;17.30;15.67;;;17.40;99.90;;;;;;6245862;23;20718;-45
2022/09/01 06:27:47;;;;;;;18.93;17.23;;;17.50;99.90;;;;;;6243869;23;20413;-44
2022/09/01 06:30:19;;;;;;;18.60;16.90;;;17.50;99.90;;;;;;6245573;23;20459;-46
2022/09/01 06:32:48;;;;;;;17.73;16.13;;;17.50;99.90;;;;;;6243834;22;20286;-44
2022/09/01 06:35:16;;;;;;;18.30;16.50;;;17.50;99.90;;;;;;6244646;23;20420;-44
2022/09/01 06:37:43;;;;;;;19.23;17.50;;;17.50;99.90;;;;;;6244140;23;20360;-45
2022/09/01 06:40:15;;;;;;;19.17;17.30;;;17.50;99.90;;;;;;6242563;23;20410;-46
2022/09/01 06:42:46;;;;;;;21.20;18.07;;;17.40;99.90;;;;;;6243555;23;20372;-44
2022/09/01 06:45:14;;;;;;;17.80;16.20;;;17.30;99.90;;;;;;6243032;23;20457;-47
2022/09/01 06:47:43;;;;;;;18.00;16.17;;;17.30;99.90;;;;;;6245242;23;20420;-47
2022/09/01 06:50:09;;;;;;;16.70;15.30;;;17.30;99.90;;;;;;6241343;23;20636;-44
2022/09/01 06:52:35;;;;;;;15.83;14.33;;;17.30;99.90;;;;;;6244481;23;20355;-46
2022/09/01 06:55:01;;;;;;;17.87;16.27;;;17.30;99.90;;;;;;6244452;23;20433;-45
2022/09/01 06:57:28;;;;;;;18.70;16.90;;;17.40;99.90;;;;;;6244773;23;20434;-45
2022/09/01 06:59:54;;;;;;;16.27;14.63;;;17.40;99.90;;;;;;6244528;23;20167;-45
2022/09/01 07:02:20;;;;;;;19.20;17.40;;;17.50;99.90;;;;;;6245572;22;20373;-45
2022/09/01 07:04:45;;;;;;;16.70;15.20;;;17.70;99.90;;;;;;6248181;23;20155;-45
2022/09/01 07:07:12;;;;;;;14.97;13.67;;;17.90;99.90;;;;;;6247106;23;20421;-44
2022/09/01 07:09:39;;;;;;;16.90;15.23;;;18.10;99.90;;;;;;6247447;23;20191;-45
2022/09/01 07:12:05;;;;;;;15.90;14.47;;;18.30;99.90;;;;;;6248521;23;20383;-45
2022/09/01 07:14:31;;;;;;;16.23;14.73;;;18.50;99.90;;;;;;6249262;23;20398;-45
2022/09/01 07:16:57;;;;;;;16.27;14.77;;;18.70;99.90;;;;;;6248686;23;20361;-47
2022/09/01 07:19:24;;;;;;;15.90;14.50;;;18.80;99.90;;;;;;6248954;23;20155;-44
2022/09/01 07:21:51;;;;;;;16.23;14.77;;;19.20;99.90;;;;;;6247743;23;20184;-44
2022/09/01 07:24:17;;;;;;;14.57;13.23;;;19.50;99.20;;;;;;6248118;23;20387;-45
2022/09/01 07:26:49;;;;;;;11.87;10.87;;;19.80;99.00;;;;;;6247742;23;20415;-44
2022/09/01 07:29:18;;;;;;;12.27;11.07;;;19.80;99.00;;;;;;6246631;23;20435;-45
2022/09/01 07:31:44;;;;;;;13.03;11.93;;;20.00;98.50;;;;;;6246342;22;20440;-50
2022/09/01 07:34:12;;;;;;;12.27;11.17;;;20.20;97.80;;;;;;6246540;23;20690;-47
2022/09/01 07:36:44;;;;;;;11.97;10.77;;;20.30;97.10;;;;;;6244956;23;20138;-44
2022/09/01 07:39:12;;;;;;;11.33;10.33;;;20.30;96.20;;;;;;6245537;23;20671;-44
2022/09/01 07:41:40;;;;;;;9.93;9.00;;;20.20;96.90;;;;;;6244792;23;20361;-45
2022/09/01 07:44:07;;;;;;;9.87;8.97;;;20.10;97.30;;;;;;6244632;23;20426;-44
2022/09/01 07:46:33;;;;;;;11.03;10.13;;;20.20;97.50;;;;;;6243745;23;20748;-45
2022/09/01 07:49:00;;;;;;;10.83;9.80;;;20.20;97.60;;;;;;6242625;23;20402;-43
2022/09/01 07:51:26;;;;;;;13.67;12.50;;;20.20;97.70;;;;;;6244514;23;20156;-50
2022/09/01 07:53:52;;;;;;;11.20;10.20;;;20.20;96.50;;;;;;6246346;23;20383;-43
2022/09/01 07:56:21;;;;;;;10.93;9.93;;;20.00;96.40;;;;;;6245736;23;20383;-42
2022/09/01 07:58:48;;;;;;;11.07;10.13;;;19.90;97.10;;;;;;6245533;23;20159;-46
2022/09/01 08:01:20;;;;;;;12.43;11.33;;;19.80;97.30;;;;;;6246638;23;20452;-46
2022/09/01 08:03:48;;;;;;;11.83;10.83;;;19.70;97.70;;;;;;6247105;22;20454;-42
2022/09/01 08:06:20;;;;;;;13.23;12.13;;;19.80;97.20;;;;;;6247813;23;20417;-45
2022/09/01 08:08:49;;;;;;;10.43;9.53;;;19.80;97.10;;;;;;6245885;23;20447;-43
2022/09/01 08:11:24;;;;;;;11.07;10.17;;;19.70;97.90;;;;;;6245402;23;20953;-42
2022/09/01 08:13:51;;;;;;;10.40;9.43;;;19.70;98.20;;;;;;6245250;23;20361;-43
2022/09/01 08:16:18;;;;;;;11.60;10.57;;;19.80;97.80;;;;;;6244259;23;20410;-43
2022/09/01 08:18:46;;;;;;;10.53;9.10;;;19.90;96.90;;;;;;6247482;23;20408;-42
2022/09/01 08:21:12;;;;;;;9.07;8.30;;;20.10;97.00;;;;;;6246568;23;20972;-42
2022/09/01 08:23:38;;;;;;;11.00;10.00;;;20.30;97.20;;;;;;6246448;23;20407;-44
2022/09/01 08:26:06;;;;;;;9.33;8.43;;;20.50;96.50;;;;;;6246053;23;20159;-44
2022/09/01 08:28:32;;;;;;;9.03;8.17;;;20.60;96.20;;;;;;6245353;23;20405;-44
2022/09/01 08:30:58;;;;;;;11.07;10.07;;;20.70;96.00;;;;;;6246097;23;20377;-45
2022/09/01 08:33:25;;;;;;;11.00;9.90;;;20.80;95.70;;;;;;6243830;23;20467;-44
2022/09/01 08:35:50;;;;;;;10.67;9.70;;;20.80;95.80;;;;;;6244802;23;20434;-45
2022/09/01 08:38:16;;;;;;;12.20;11.20;;;20.80;95.70;;;;;;6244576;23;20455;-44
2022/09/01 08:40:48;;;;;;;11.57;10.67;;;20.80;94.90;;;;;;6247126;23;20156;-44
2022/09/01 08:43:53;;;;;;;12.30;11.10;;;20.70;95.30;;;;;;6247399;23;20135;-46
2022/09/01 08:46:35;;;;;;;11.40;10.40;;;20.90;95.40;;;;;;6246617;23;20430;-44
2022/09/01 08:49:06;;;;;;;10.53;9.63;;;21.00;94.20;;;;;;6248003;23;20369;-43
2022/09/01 08:51:44;;;;;;;12.00;10.90;;;21.10;94.90;;;;;;6249189;23;20767;-42
2022/09/01 08:54:43;;;;;;;10.23;9.33;;;21.20;94.90;;;;;;6248449;23;20349;-44
2022/09/01 08:57:14;;;;;;;10.63;9.73;;;21.50;95.00;;;;;;6240166;23;20400;-46
2022/09/01 08:59:40;;;;;;;10.10;9.20;;;21.50;93.60;;;;;;6248622;23;20388;-46
2022/09/01 09:02:33;;;;;;;9.10;8.40;;;21.50;93.30;;;;;;6246624;23;20749;-45
2022/09/01 09:05:20;;;;;;;9.43;8.63;;;21.60;93.50;;;;;;6248659;23;20144;-47
2022/09/01 09:08:23;;;;;;;9.67;8.90;;;21.70;93.40;;;;;;6247330;23;20436;-44
2022/09/01 09:10:55;;;;;;;10.03;9.23;;;22.00;92.30;;;;;;6247481;23;20769;-45
2022/09/01 09:13:38;;;;;;;10.67;9.77;;;22.10;92.00;;;;;;6246779;23;20943;-46
2022/09/01 09:16:27;;;;;;;11.17;10.27;;;22.10;91.00;;;;;;6247516;22;20352;-45
2022/09/01 09:19:05;;;;;;;9.30;8.50;;;21.90;91.90;;;;;;6247958;23;20774;-44
2022/09/01 09:21:36;;;;;;;10.83;9.93;;;21.90;92.90;;;;;;6244583;23;20726;-44
2022/09/01 09:24:14;;;;;;;10.33;9.33;;;21.80;91.50;;;;;;6247023;23;20721;-45
2022/09/01 09:26:39;;;;;;;10.77;9.77;;;21.60;92.50;;;;;;6247200;23;20625;-45
2022/09/01 09:29:05;;;;;;;9.80;9.00;;;21.80;91.70;;;;;;6244896;23;20446;-46
2022/09/01 09:31:37;;;;;;;10.60;9.70;;;22.10;90.80;;;;;;6247071;23;20133;-46
2022/09/01 09:34:04;;;;;;;9.73;8.70;;;22.30;91.20;;;;;;6246344;23;20149;-44
2022/09/01 09:36:35;;;;;;;9.33;8.43;;;22.40;91.50;;;;;;6245584;23;20437;-45
2022/09/01 09:39:10;;;;;;;8.77;7.97;;;22.80;91.90;;;;;;6243068;23;20408;-45
2022/09/01 09:41:38;;;;;;;9.63;8.73;;;23.40;90.90;;;;;;6244301;23;20384;-45
2022/09/01 09:44:22;;;;;;;9.10;8.30;;;24.00;86.70;;;;;;6241259;23;20395;-45
2022/09/01 09:46:48;;;;;;;10.63;8.97;;;24.10;84.40;;;;;;6241179;23;20946;-45
2022/09/01 09:49:23;;;;;;;7.90;7.20;;;24.50;81.70;;;;;;6242465;23;20369;-46
2022/09/01 09:51:55;;;;;;;6.80;6.30;;;24.40;82.30;;;;;;6243166;23;20128;-45
2022/09/01 09:54:31;;;;;;;7.60;7.00;;;24.50;79.50;;;;;;6242109;23;20353;-45
2022/09/01 09:57:12;;;;;;;8.53;7.83;;;24.50;79.60;;;;;;6245094;23;20362;-45
2022/09/01 10:00:07;;;;;;;7.03;6.33;;;24.20;79.30;;;;;;6245316;23;20383;-45
2022/09/01 10:02:36;;;;;;;7.07;6.47;;;23.90;79.40;;;;;;6244485;23;20390;-44
2022/09/01 10:05:28;;;;;;;9.30;7.30;;;23.70;80.60;;;;;;6244118;23;20397;-45
2022/09/01 10:07:55;;;;;;;6.83;6.33;;;23.80;79.30;;;;;;6246713;22;20481;-46
2022/09/01 10:10:48;;;;;;;7.10;6.50;;;24.00;80.20;;;;;;6245696;23;20443;-45
2022/09/01 10:13:22;;;;;;;7.50;6.43;;;24.00;79.50;;;;;;6241709;22;20874;-46
2022/09/01 10:15:51;;;;;;;7.47;6.77;;;24.40;79.00;;;;;;6243765;22;20384;-45
2022/09/01 10:18:19;;;;;;;7.70;7.07;;;24.80;78.30;;;;;;6242191;23;20470;-45
2022/09/01 10:20:54;;;;;;;6.47;5.87;;;24.90;77.80;;;;;;6241849;23;20474;-44
2022/09/01 10:23:19;;;;;;;6.90;6.30;;;25.10;78.10;;;;;;6241874;23;20443;-46
2022/09/01 10:25:49;;;;;;;7.43;6.73;;;25.60;74.40;;;;;;6241812;23;20381;-48
2022/09/01 10:28:18;;;;;;;9.07;6.80;;;25.80;76.00;;;;;;6241829;23;20619;-47
2022/09/01 10:30:46;;;;;;;8.73;7.70;;;25.70;75.10;;;;;;6242456;23;20385;-47
2022/09/01 10:33:15;;;;;;;7.33;6.73;;;25.90;73.40;;;;;;6242865;23;20394;-46
2022/09/01 10:35:43;;;;;;;7.40;6.63;;;25.90;74.00;;;;;;6243126;23;20477;-47
2022/09/01 10:38:18;;;;;;;6.23;5.73;;;25.90;72.00;;;;;;6243594;23;20485;-45
2022/09/01 10:40:47;;;;;;;6.17;5.30;;;25.90;72.30;;;;;;6240081;23;20581;-45
2022/09/01 10:43:33;;;;;;;5.73;5.33;;;26.10;71.40;;;;;;6240247;23;20364;-47
2022/09/01 10:45:58;;;;;;;5.97;5.47;;;26.20;68.30;;;;;;6217568;23;20407;-45
2022/09/01 10:48:29;;;;;;;61.30;13.37;;;25.70;66.80;;;;;;6244751;23;20698;-46
2022/09/01 10:51:13;;;;;;;29.70;10.57;;;25.60;69.80;;;;;;6244503;23;20495;-45
2022/09/01 10:53:43;;;;;;;17.10;6.90;;;25.60;70.40;;;;;;6244101;23;20403;-46
2022/09/01 10:56:19;;;;;;;21.73;8.50;;;26.00;71.60;;;;;;6248170;23;20379;-45
2022/09/01 10:59:04;;;;;;;14.93;6.83;;;26.40;69.10;;;;;;6247617;23;20360;-45
2022/09/01 11:01:39;;;;;;;8.77;5.63;;;26.70;68.80;;;;;;6247970;23;20404;-46
2022/09/01 11:04:15;;;;;;;8.07;6.17;;;26.90;67.30;;;;;;6247382;23;20359;-47
2022/09/01 11:06:41;;;;;;;5.83;5.43;;;26.90;63.40;;;;;;6248702;23;20346;-47
2022/09/01 11:09:24;;;;;;;6.10;5.60;;;26.90;62.10;;;;;;6246603;23;20390;-45
2022/09/01 11:12:12;;;;;;;6.10;5.60;;;26.20;62.90;;;;;;6245542;23;20157;-46
2022/09/01 11:14:53;;;;;;;5.57;5.17;;;25.90;66.70;;;;;;6246043;23;20774;-46
2022/09/01 11:17:25;;;;;;;5.60;4.93;;;25.70;66.30;;;;;;6246096;23;20352;-46
2022/09/01 11:19:58;;;;;;;10.97;5.50;;;25.60;66.20;;;;;;6244043;23;20414;-46
2022/09/01 11:22:41;;;;;;;5.20;4.70;;;25.50;66.50;;;;;;6245556;23;20364;-45
2022/09/01 11:25:09;;;;;;;5.23;4.80;;;25.60;64.50;;;;;;6244583;23;20488;-45
2022/09/01 11:27:50;;;;;;;5.13;4.57;;;25.80;64.30;;;;;;6242181;23;20412;-46
2022/09/01 11:30:22;;;;;;;5.67;5.20;;;25.80;66.00;;;;;;6243585;23;20371;-45
2022/09/01 11:32:52;;;;;;;4.93;4.53;;;26.70;66.30;;;;;;6242295;23;20374;-46
2022/09/01 11:35:22;;;;;;;5.43;5.03;;;27.70;61.70;;;;;;6244051;23;20436;-45
2022/09/01 11:37:50;;;;;;;4.37;3.97;;;28.50;61.10;;;;;;6243739;23;20915;-46
2022/09/01 11:40:25;;;;;;;5.00;4.60;;;29.00;58.40;;;;;;6245006;23;20852;-45
2022/09/01 11:42:53;;;;;;;4.50;4.10;;;28.50;55.70;;;;;;6241787;23;20618;-45
2022/09/01 11:45:31;;;;;;;5.13;3.97;;;28.60;56.90;;;;;;6242601;23;20728;-45
2022/09/01 11:48:01;;;;;;;4.30;3.90;;;29.20;54.80;;;;;;6241635;23;20400;-46
2022/09/01 11:50:32;;;;;;;5.00;4.60;;;29.10;53.40;;;;;;6240869;23;20776;-46
2022/09/01 11:53:10;;;;;;;4.90;4.50;;;29.20;53.20;;;;;;6241767;23;20328;-45
2022/09/01 11:55:37;;;;;;;5.33;4.93;;;29.10;53.00;;;;;;6216579;23;20366;-47
2022/09/01 11:58:03;;;;;;;4.73;4.23;;;28.50;53.80;;;;;;6244614;23;20663;-46
2022/09/01 12:00:32;;;;;;;5.27;4.83;;;27.70;54.50;;;;;;6217911;23;20408;-46
2022/09/01 12:02:58;;;;;;;5.70;5.20;;;27.80;55.20;;;;;;6245718;23;20408;-45
2022/09/01 12:05:28;;;;;;;5.33;4.93;;;27.20;56.70;;;;;;6246993;23;20357;-45
2022/09/01 12:07:55;;;;;;;4.37;4.07;;;26.60;58.10;;;;;;6244696;23;20511;-49
2022/09/01 12:10:26;;;;;;;5.23;4.63;;;26.80;58.20;;;;;;6245209;23;20366;-46
2022/09/01 12:13:08;;;;;;;4.90;4.50;;;26.90;55.80;;;;;;6244795;23;20660;-44
2022/09/01 12:15:37;;;;;;;4.93;4.53;;;26.70;55.50;;;;;;6244097;23;20402;-46
2022/09/01 12:18:20;;;;;;;4.60;4.20;;;27.00;55.50;;;;;;6243862;23;20695;-46
2022/09/01 12:20:51;;;;;;;4.33;4.03;;;27.20;55.40;;;;;;6245797;23;20375;-46
2022/09/01 12:23:27;;;;;;;4.50;4.10;;;27.30;55.40;;;;;;6247849;23;20380;-45
2022/09/01 12:25:55;;;;;;;4.20;3.90;;;27.00;56.30;;;;;;6244716;23;20417;-45
2022/09/01 12:28:32;;;;;;;4.13;3.83;;;26.70;56.10;;;;;;6244016;23;20939;-45
2022/09/01 12:31:04;;;;;;;4.00;3.70;;;26.90;56.00;;;;;;6247561;23;20839;-45
2022/09/01 12:33:31;;;;;;;5.20;4.70;;;27.70;54.50;;;;;;6246733;23;20672;-46
2022/09/01 12:36:26;;;;;;;4.10;3.80;;;28.20;52.60;;;;;;6221427;23;20444;-45
2022/09/01 12:39:16;;;;;;;3.70;3.40;;;28.00;52.20;;;;;;6245386;23;20375;-45
2022/09/01 12:41:43;;;;;;;3.90;3.60;;;28.40;52.90;;;;;;6246422;23;20415;-47
2022/09/01 12:44:34;;;;;;;3.70;3.50;;;28.50;52.70;;;;;;6246421;23;20372;-45
2022/09/01 12:47:05;;;;;;;5.17;4.50;;;29.20;51.90;;;;;;6246935;23;20379;-45
2022/09/01 12:49:47;;;;;;;5.13;4.77;;;29.40;50.10;;;;;;6220762;23;20389;-45
2022/09/01 12:52:24;;;;;;;5.57;4.20;;;29.80;50.50;;;;;;6219655;23;20975;-44
2022/09/01 12:54:57;;;;;;;4.60;4.30;;;30.00;50.50;;;;;;6244026;23;20384;-47